Abbott, Pennsylvania
Current Conditions -  °F | °C
As of 5:35 AM on Friday 24 Oct 2014 (Local Time) from KN38 Reporting Station
Overcast Overcast  
Wind Chill: 43°   Ceiling: 2800
Heat Index: 48°   Visibility: 10mi
Dew Point: 41°   Wind: 14mph
Humidity: 76%   Direction: 340°NNW
Pressure: 29.98"   Gusts: 22mph
Location:  41.6755°N, 77.7071°W
Report Text: KN38 240935Z AUTO 34012G19KT 10SM OVC028 09/05 A2998 RMK AO2
Loading
Personal Weather Stations






























Interactive Weather Map
Tropical Storm Tracking
New forecast layout! Learn more

10-Day Weather Forecast

Advertisements
Track Severe Weather on mobile